Slide Mountain Weather observations

Data are for 10 minute period ending at time listed.
 Day   Time   Solar   Ave.   Ave.  Ave.  Vector  Max.    Baro.  
  of    of     Rad.   Air    Rel.  Wind   Wind   Wind   Press.  
Year   Day            Temp.  Hum.  Speed  Dir.   Gust           
2015   (PST)  Kw/m2    F      %     mph   deg.    mph     mb.   
-----------------------------------------------------------------
 247    8:30   0.48   38.4    76   29.4   241     48.3    708.1 
 247    8:40   0.51   38.9    73   26.4   241     45.4    708.2 
 247    8:50   0.52   39.3    70   28.0   238     43.9    708.2 
 247    9:00   0.55   39.5    67   27.2   245     41.0    708.2 
 247    9:10   0.55   40.3    68   24.9   240     38.9    708.3 
 247    9:20   0.62   40.3    67   27.2   243     48.7    708.2 
 247    9:30   0.62   41.3    64   23.6   244     42.5    708.2 
 247    9:40   0.63   40.8    62   29.2   248     43.3    708.1 
 247    9:50   0.65   40.8    60   32.0   242     48.3    708.0 
 247   10:00   0.67   40.7    58   35.8   247     53.2    707.9 
 247   10:10   0.68   41.0    58   33.6   242     53.1    707.9 
 247   10:20   0.70   41.5    53   34.5   246     51.9    707.8 
 247   10:30   0.72   41.9    53   35.6   251     51.0    707.7 
 247   10:40   0.73   41.8    54   36.6   244     53.5    707.7 
 247   10:50   0.74   42.3    50   36.1   245     54.4    707.8 
 247   11:00   0.75   42.3    54   35.2   240     50.9    707.9 
 247   11:10   0.76   42.6    45   35.3   246     49.6    707.8 
 247   11:20   0.76   43.1    47   35.0   242     57.9    707.8 
 247   11:30   0.77   43.0    46   35.6   244     51.8    707.7 
 247   11:40   0.77   43.7    46   31.8   236     49.6    707.7 
 247   11:50   0.77   44.1    47   32.3   238     51.6    707.8 
 247   12:00   0.78   43.5    47   34.7   242     51.8    707.7 
 247   12:10   0.77   44.0    48   33.8   241     50.2    707.7 
 247   12:20   0.77   44.3    45   33.0   240     51.7    707.7 
 247   12:30   0.77   44.1    45   35.8   243     51.4    707.6 
 247   12:40   0.76   44.2    44   35.1   245     59.2    707.5 
 247   12:50   0.76   44.5    44   32.6   242     49.9    707.6 
 247   13:00   0.75   44.7    42   35.0   242     49.8    707.6 
 247   13:10   0.74   44.3    42   35.2   245     54.1    707.7 
 247   13:20   0.73   44.3    42   35.1   246     55.5    707.6 
 247   13:30   0.72   44.3    39   38.3   243     61.0    707.5 
 247   13:40   0.70   44.3    41   36.7   248     55.3    707.5 
 247   13:50   0.69   44.1    40   37.3   240     53.7    707.4 
 247   14:00   0.67   44.5    38   34.1   252     57.3    707.4 
 247   14:10   0.66   43.9    37   36.2   251     56.8    707.4 
 247   14:20   0.64   43.8    37   34.3   251     56.9    707.4 
 247   14:30   0.62   43.7    34   35.8   249     54.0    707.4 
 247   14:40   0.60   44.0    34   34.7   247     55.1    707.3 
 247   14:50   0.58   43.7    31   37.8   245     65.4    707.1 
 247   15:00   0.56   43.6    32   38.0   247     60.6    707.1 
 247   15:10   0.54   43.6    34   35.0   246     51.5    707.2 
 247   15:20   0.51   44.1    33   33.1   248     53.3    707.3 
 247   15:30   0.49   42.8    30   39.8   254     58.8    707.2 
 247   15:40   0.47   42.0    26   44.8   253     65.4    707.2 
 247   15:50   0.44   42.1    28   41.4   251     56.6    707.3 
 247   16:00   0.41   42.0    26   42.2   253     66.5    707.3 
 247   16:10   0.38   42.0    28   39.2   251     58.0    707.6 
 247   16:20   0.35   41.6    28   39.8   252     54.0    707.6 
 247   16:30   0.33   41.3    28   41.4   254     58.4    707.6 
 247   16:40   0.30   40.6    27   44.5   255     62.1    707.6 
 247   16:50   0.27   40.3    28   44.9   252     60.6    707.5 
 247   17:00   0.24   40.0    26   45.1   252     61.2    707.5 
 247   17:10   0.21   39.7    27   42.8   256     61.5    707.5 
 247   17:20   0.18   39.4    28   40.8   256     58.5    707.6 
 247   17:30   0.15   38.9    27   41.1   253     61.9    707.6 
 247   17:40   0.13   38.5    30   39.9   254     59.9    707.7 
 247   17:50   0.10   38.0    26   37.5   253     56.0    707.7 
 247   18:00   0.06   37.5    28   35.7   253     49.2    707.8 
 247   18:10   0.03   37.0    32   31.8   259     45.6    708.0 
 247   18:20   0.01   36.2    30   33.0   259     48.5    708.1 
 247   18:30   0.00   35.7    30   32.5   259     46.8    708.1 
 247   18:40   0.00   35.4    29   34.3   257     49.7    708.1 
 247   18:50   0.00   35.1    26   37.4   255     57.5    708.0 
 247   19:00   0.00   35.1    24   38.8   255     61.4    707.9 
 247   19:10   0.00   35.0    23   39.9   257     55.4    708.0 
 247   19:20   0.00   34.8    21   39.5   255     57.4    708.0 
 247   19:30   0.00   34.7    20   39.1   254     58.8    708.2 
 247   19:40   0.00   34.6    20   38.0   256     58.9    708.3 
 247   19:50   0.00   34.4    19   38.5   256     56.4    708.3 
 247   20:00   0.00   34.5    18   39.0   254     53.3    708.4 
 247   20:10   0.00   34.2    20   38.0   255     55.2    708.3 
 247   20:20   0.00   34.0    19   38.7   254     54.3    708.4 
 247   20:30   0.00   34.1    18   39.1   254     53.7    708.4 
 247   20:40   0.00   33.9    18   39.1   253     52.9    708.4 
 247   20:50   0.00   33.9    18   38.3   252     51.9    708.5 
 247   21:00   0.00   33.9    18   37.3   254     50.2    708.5 
 247   21:10   0.00   33.8    18   36.2   250     52.2    708.7 
 247   21:20   0.00   33.8    18   33.7   252     46.4    708.8 
 247   21:30   0.00   33.9    16   32.7   255     47.3    708.8 
 247   21:40   0.00   33.9    16   32.0   254     44.2    708.8 
 247   21:50   0.00   33.6    17   32.6   253     48.5    708.8 
 247   22:00   0.00   33.1    20   31.8   251     47.2    708.8 
 247   22:10   0.00   32.7    21   28.4   250     39.8    708.9 
 247   22:20   0.00   32.5    22   27.4   252     38.2    708.9 
 247   22:30   0.00   32.3    23   26.4   252     35.2    709.0 
 247   22:40   0.00   32.3    23   26.9   250     36.8    709.1 
 247   22:50   0.00   32.5    19   27.9   253     39.0    709.1 
 247   23:00   0.00   32.5    17   27.4   253     40.9    709.1 
 247   23:10   0.00   32.8    14   29.9   250     41.3    709.1 
 247   23:20   0.00   33.0    13   28.6   251     38.8    709.2 
 247   23:30   0.00   33.1    12   28.0   251     41.2    709.3 
 247   23:40   0.00   32.9    12   24.8   252     37.2    709.4 
 247   23:50   0.00   32.5    13   24.4   250     37.7    709.5 
 248    0:00   0.00   32.3    13   23.6   252     33.3    709.5 
 248    0:10   0.00   32.2    13   23.8   254     35.5    709.5 
 248    0:20   0.00   31.8    14   22.5   254     31.0    709.6 
 248    0:30   0.00   31.6    16   22.6   256     32.3    709.6 
 248    0:40   0.00   31.0    18   21.4   256     30.2    709.5 
 248    0:50   0.00   30.9    18   20.3   256     29.0    709.6 
 248    1:00   0.00   30.6    20   20.5   255     28.2    709.6 
 248    1:10   0.00   30.7    19   21.5   251     28.6    709.6 
 248    1:20   0.00   30.8    19   21.7   252     32.8    709.5 
 248    1:30   0.00   30.5    20   21.9   252     32.4    709.5 
 248    1:40   0.00   30.7    20   22.9   254     30.2    709.5 
 248    1:50   0.00   30.4    22   23.6   249     33.7    709.5 
 248    2:00   0.00   30.2    23   23.7   252     32.2    709.5 
 248    2:10   0.00   30.2    24   24.0   253     33.5    709.5 
 248    2:20   0.00   30.1    25   25.0   253     33.6    709.5 
 248    2:30   0.00   30.3    22   24.9   250     36.1    709.5 
 248    2:40   0.00   30.6    20   24.4   249     33.7    709.5 
 248    2:50   0.00   30.7    19   25.1   249     37.5    709.5 
 248    3:00   0.00   30.6    20   22.3   248     31.8    709.6 
 248    3:10   0.00   30.5    22   20.1   247     30.4    709.7 
 248    3:20   0.00   30.5    21   19.5   246     28.7    709.7 
 248    3:30   0.00   30.6    22   22.3   248     32.7    709.7 
 248    3:40   0.00   30.6    22   21.3   248     34.0    709.7 
 248    3:50   0.00   30.6    22   22.0   251     38.5    709.6 
 248    4:00   0.00   30.6    24   22.4   251     35.0    709.6 
 248    4:10   0.00   30.6    30   22.8   248     33.2    709.6 
 248    4:20   0.00   30.5    34   24.3   247     35.9    709.6 
 248    4:30   0.00   30.5    35   22.6   248     34.2    709.6 
 248    4:40   0.00   30.6    36   23.8   248     37.7    709.6 
 248    4:50   0.00   30.8    37   24.2   248     37.1    709.7 
 248    5:00   0.00   31.0    38   22.9   244     34.3    709.8 
 248    5:10   0.00   31.0    37   23.0   250     32.4    709.9 
 248    5:20   0.00   31.3    31   21.4   251     31.7    710.0 
 248    5:30   0.01   31.3    31   21.6   250     31.6    710.2 
 248    5:40   0.01   31.9    28   24.3   251     35.2    710.2 
 248    5:50   0.03   32.3    25   21.0   252     35.5    710.4 
 248    6:00   0.04   32.0    28   21.3   252     30.4    710.4 
 248    6:10   0.06   32.2    30   20.8   252     34.2    710.5 
 248    6:20   0.09   32.3    27   19.2   252     28.4    710.6 
 248    6:30   0.13   32.7    26   18.6   252     32.7    710.7 
 248    6:40   0.17   33.0    26   17.4   254     25.4    710.8 
 248    6:50   0.20   33.2    27   16.2   250     27.9    710.9 
 248    7:00   0.18   33.0    28   16.1   251     25.6    711.0 
 248    7:10   0.24   33.4    30   16.3   252     24.3    711.1 
 248    7:20   0.28   33.9    27   16.6   252     25.0    711.2 
 248    7:30   0.31   34.3    27   16.0   247     24.9    711.2 
 248    7:40   0.34   34.9    26   15.6   247     27.2    711.3 
 248    7:50   0.36   35.7    24   15.3   249     26.4    711.4 
 248    8:00   0.39   36.5    23   14.7   245     24.5    711.5 
 248    8:10   0.42   37.3    21   15.0   252     25.7    711.6 
 248    8:20   0.45   37.8    20   14.3   253     22.8    711.8 

Return to Slide Mountain graphs page.


Western Regional Climate Center,wrcc@dri.edu